Solonovka, Russia
Current Conditions -  °F | °C
As of 11:00 AM on Saturday 20 Dec 2014 (Local Time) from UNOO Reporting Station
Smoke Smoke  
Wind Chill: -14°   Ceiling: Unl
Heat Index: -4°   Visibility: 2.5mi
Dew Point: -8°   Wind: 4mph
Humidity: 85%   Direction: 160°SSE
Pressure: 30.27"   Gusts: NA
Location:  54.58°N, 73.95°E
Report Text: UNOO 200500Z 16002MPS 4000 FU SCT200 M20/M22 Q1025 25820550NOSIG RMK QFE760
Loading
Personal Weather Stations






























Interactive Weather Map New forecast layout! Learn more

10-Day Weather Forecast

Advertisements
Track Severe Weather on mobile